sensor_id;sensor_type;location;lat;lon;timestamp;P1;durP1;ratioP1;P2;durP2;ratioP2
1829;SDS011;914;48.118;11.600;2022-08-01T00:01:37;2.15;;;1.70;;
1829;SDS011;914;48.118;11.600;2022-08-01T00:04:03;3.88;;;1.80;;
1829;SDS011;914;48.118;11.600;2022-08-01T00:06:29;1.85;;;1.75;;
1829;SDS011;914;48.118;11.600;2022-08-01T00:08:55;2.60;;;1.83;;
1829;SDS011;914;48.118;11.600;2022-08-01T00:11:21;1.70;;;1.60;;
1829;SDS011;914;48.118;11.600;2022-08-01T00:13:46;3.08;;;1.90;;
1829;SDS011;914;48.118;11.600;2022-08-01T00:16:12;2.03;;;1.80;;
1829;SDS011;914;48.118;11.600;2022-08-01T00:18:38;3.78;;;2.25;;
1829;SDS011;914;48.118;11.600;2022-08-01T00:21:03;2.45;;;1.98;;
1829;SDS011;914;48.118;11.600;2022-08-01T00:23:29;1.80;;;1.70;;
1829;SDS011;914;48.118;11.600;2022-08-01T00:25:55;3.25;;;1.67;;
1829;SDS011;914;48.118;11.600;2022-08-01T00:28:21;1.92;;;1.73;;
1829;SDS011;914;48.118;11.600;2022-08-01T00:30:47;1.90;;;1.70;;
1829;SDS011;914;48.118;11.600;2022-08-01T00:33:12;1.65;;;1.55;;
1829;SDS011;914;48.118;11.600;2022-08-01T00:35:38;2.85;;;1.48;;
1829;SDS011;914;48.118;11.600;2022-08-01T00:38:04;2.03;;;1.70;;
1829;SDS011;914;48.118;11.600;2022-08-01T00:40:29;1.88;;;1.73;;
1829;SDS011;914;48.118;11.600;2022-08-01T00:42:55;1.88;;;1.70;;
1829;SDS011;914;48.118;11.600;2022-08-01T00:45:21;3.95;;;2.22;;
1829;SDS011;914;48.118;11.600;2022-08-01T00:47:46;2.45;;;1.70;;
1829;SDS011;914;48.118;11.600;2022-08-01T00:50:12;3.45;;;1.90;;
1829;SDS011;914;48.118;11.600;2022-08-01T00:52:38;1.80;;;1.70;;
1829;SDS011;914;48.118;11.600;2022-08-01T00:55:05;2.22;;;1.70;;
1829;SDS011;914;48.118;11.600;2022-08-01T00:57:31;3.38;;;1.83;;
1829;SDS011;914;48.118;11.600;2022-08-01T00:59:57;1.80;;;1.70;;
1829;SDS011;914;48.118;11.600;2022-08-01T01:02:23;3.95;;;2.08;;
1829;SDS011;914;48.118;11.600;2022-08-01T01:04:48;3.55;;;2.10;;
1829;SDS011;914;48.118;11.600;2022-08-01T01:07:19;7.20;;;1.90;;
1829;SDS011;914;48.118;11.600;2022-08-01T01:10:00;1.80;;;1.60;;
1829;SDS011;914;48.118;11.600;2022-08-01T01:12:48;2.25;;;2.00;;
1829;SDS011;914;48.118;11.600;2022-08-01T01:15:26;2.80;;;1.52;;
1829;SDS011;914;48.118;11.600;2022-08-01T01:24:51;5.25;;;1.80;;
1829;SDS011;914;48.118;11.600;2022-08-01T01:27:33;2.58;;;1.80;;
1829;SDS011;914;48.118;11.600;2022-08-01T01:30:07;2.17;;;1.92;;
1829;SDS011;914;48.118;11.600;2022-08-01T01:32:41;1.85;;;1.75;;
1829;SDS011;914;48.118;11.600;2022-08-01T01:35:26;2.38;;;2.00;;
1829;SDS011;914;48.118;11.600;2022-08-01T01:37:56;2.47;;;1.80;;
1829;SDS011;914;48.118;11.600;2022-08-01T01:40:26;1.85;;;1.75;;
1829;SDS011;914;48.118;11.600;2022-08-01T01:42:53;1.98;;;1.60;;
1829;SDS011;914;48.118;11.600;2022-08-01T01:45:22;2.67;;;1.70;;
1829;SDS011;914;48.118;11.600;2022-08-01T01:47:49;4.18;;;1.80;;
1829;SDS011;914;48.118;11.600;2022-08-01T01:50:16;1.60;;;1.50;;
1829;SDS011;914;48.118;11.600;2022-08-01T01:52:44;2.13;;;1.60;;
1829;SDS011;914;48.118;11.600;2022-08-01T01:55:11;1.75;;;1.65;;
1829;SDS011;914;48.118;11.600;2022-08-01T01:57:39;5.95;;;2.05;;
1829;SDS011;914;48.118;11.600;2022-08-01T02:00:07;4.10;;;1.88;;
1829;SDS011;914;48.118;11.600;2022-08-01T02:02:36;3.92;;;1.75;;
1829;SDS011;914;48.118;11.600;2022-08-01T02:05:02;3.30;;;1.75;;
1829;SDS011;914;48.118;11.600;2022-08-01T02:07:30;4.95;;;1.80;;
1829;SDS011;914;48.118;11.600;2022-08-01T02:09:57;3.28;;;1.65;;
1829;SDS011;914;48.118;11.600;2022-08-01T02:12:25;1.85;;;1.50;;
1829;SDS011;914;48.118;11.600;2022-08-01T02:14:52;3.35;;;1.67;;
1829;SDS011;914;48.118;11.600;2022-08-01T02:17:19;1.98;;;1.70;;
1829;SDS011;914;48.118;11.600;2022-08-01T02:19:46;1.52;;;1.42;;
1829;SDS011;914;48.118;11.600;2022-08-01T02:22:36;2.20;;;1.85;;
1829;SDS011;914;48.118;11.600;2022-08-01T02:27:43;2.65;;;1.90;;
1829;SDS011;914;48.118;11.600;2022-08-01T02:30:21;3.90;;;1.73;;
1829;SDS011;914;48.118;11.600;2022-08-01T02:32:51;2.67;;;1.65;;
1829;SDS011;914;48.118;11.600;2022-08-01T02:35:26;2.22;;;1.60;;
1829;SDS011;914;48.118;11.600;2022-08-01T02:37:54;1.77;;;1.67;;
1829;SDS011;914;48.118;11.600;2022-08-01T02:40:22;3.55;;;1.67;;
1829;SDS011;914;48.118;11.600;2022-08-01T02:42:52;2.00;;;1.60;;
1829;SDS011;914;48.118;11.600;2022-08-01T02:45:22;1.60;;;1.50;;
1829;SDS011;914;48.118;11.600;2022-08-01T02:47:50;2.95;;;1.83;;
1829;SDS011;914;48.118;11.600;2022-08-01T02:50:20;2.33;;;1.85;;
1829;SDS011;914;48.118;11.600;2022-08-01T02:52:49;1.52;;;1.42;;
1829;SDS011;914;48.118;11.600;2022-08-01T02:55:17;1.60;;;1.50;;
1829;SDS011;914;48.118;11.600;2022-08-01T02:57:44;3.15;;;1.85;;
1829;SDS011;914;48.118;11.600;2022-08-01T03:00:12;1.42;;;1.42;;
1829;SDS011;914;48.118;11.600;2022-08-01T03:02:40;2.03;;;1.80;;
1829;SDS011;914;48.118;11.600;2022-08-01T03:05:08;1.73;;;1.60;;
1829;SDS011;914;48.118;11.600;2022-08-01T03:07:37;2.53;;;1.70;;
1829;SDS011;914;48.118;11.600;2022-08-01T03:10:04;2.17;;;1.60;;
1829;SDS011;914;48.118;11.600;2022-08-01T03:12:31;2.05;;;1.90;;
1829;SDS011;914;48.118;11.600;2022-08-01T03:15:00;2.25;;;1.60;;
1829;SDS011;914;48.118;11.600;2022-08-01T03:17:29;1.90;;;1.80;;
1829;SDS011;914;48.118;11.600;2022-08-01T03:19:58;1.52;;;1.45;;
1829;SDS011;914;48.118;11.600;2022-08-01T03:22:28;2.58;;;1.70;;
1829;SDS011;914;48.118;11.600;2022-08-01T03:24:54;1.80;;;1.70;;
1829;SDS011;914;48.118;11.600;2022-08-01T03:27:23;2.00;;;1.80;;
1829;SDS011;914;48.118;11.600;2022-08-01T03:29:50;1.90;;;1.80;;
1829;SDS011;914;48.118;11.600;2022-08-01T03:32:17;1.73;;;1.63;;
1829;SDS011;914;48.118;11.600;2022-08-01T03:34:44;1.63;;;1.52;;
1829;SDS011;914;48.118;11.600;2022-08-01T03:40:00;1.63;;;1.50;;
1829;SDS011;914;48.118;11.600;2022-08-01T03:42:47;1.58;;;1.48;;
1829;SDS011;914;48.118;11.600;2022-08-01T03:45:24;3.05;;;1.88;;
1829;SDS011;914;48.118;11.600;2022-08-01T03:47:54;1.75;;;1.48;;
1829;SDS011;914;48.118;11.600;2022-08-01T03:50:25;2.85;;;1.70;;
1829;SDS011;914;48.118;11.600;2022-08-01T03:52:52;2.22;;;2.00;;
1829;SDS011;914;48.118;11.600;2022-08-01T03:55:19;2.85;;;1.92;;
1829;SDS011;914;48.118;11.600;2022-08-01T03:57:46;3.42;;;1.80;;
1829;SDS011;914;48.118;11.600;2022-08-01T04:00:13;2.17;;;1.83;;
1829;SDS011;914;48.118;11.600;2022-08-01T04:02:43;1.80;;;1.70;;
1829;SDS011;914;48.118;11.600;2022-08-01T04:05:14;3.05;;;1.92;;
1829;SDS011;914;48.118;11.600;2022-08-01T04:07:40;3.00;;;1.80;;
1829;SDS011;914;48.118;11.600;2022-08-01T04:10:11;2.10;;;1.90;;
1829;SDS011;914;48.118;11.600;2022-08-01T04:12:38;2.55;;;1.70;;
1829;SDS011;914;48.118;11.600;2022-08-01T04:15:04;2.78;;;1.85;;
1829;SDS011;914;48.118;11.600;2022-08-01T04:17:30;3.80;;;2.00;;
1829;SDS011;914;48.118;11.600;2022-08-01T04:19:57;2.00;;;1.80;;
1829;SDS011;914;48.118;11.600;2022-08-01T04:22:23;2.00;;;1.83;;
1829;SDS011;914;48.118;11.600;2022-08-01T04:24:48;1.63;;;1.48;;
1829;SDS011;914;48.118;11.600;2022-08-01T04:27:21;2.28;;;1.90;;
1829;SDS011;914;48.118;11.600;2022-08-01T04:29:49;2.85;;;2.15;;
1829;SDS011;914;48.118;11.600;2022-08-01T04:32:18;2.92;;;2.25;;
1829;SDS011;914;48.118;11.600;2022-08-01T04:34:46;2.65;;;2.15;;
1829;SDS011;914;48.118;11.600;2022-08-01T04:37:14;5.57;;;2.22;;
1829;SDS011;914;48.118;11.600;2022-08-01T04:39:42;5.68;;;1.88;;
1829;SDS011;914;48.118;11.600;2022-08-01T04:42:09;3.78;;;1.70;;
1829;SDS011;914;48.118;11.600;2022-08-01T04:44:36;2.47;;;1.80;;
1829;SDS011;914;48.118;11.600;2022-08-01T04:47:02;4.03;;;2.00;;
1829;SDS011;914;48.118;11.600;2022-08-01T04:49:33;2.35;;;2.15;;
1829;SDS011;914;48.118;11.600;2022-08-01T04:52:00;2.00;;;1.90;;
1829;SDS011;914;48.118;11.600;2022-08-01T04:54:26;5.70;;;2.28;;
1829;SDS011;914;48.118;11.600;2022-08-01T04:56:53;1.90;;;1.80;;
1829;SDS011;914;48.118;11.600;2022-08-01T04:59:23;2.55;;;1.92;;
1829;SDS011;914;48.118;11.600;2022-08-01T05:02:04;4.20;;;2.05;;
1829;SDS011;914;48.118;11.600;2022-08-01T05:04:31;2.30;;;1.90;;
1829;SDS011;914;48.118;11.600;2022-08-01T05:06:56;2.08;;;1.92;;
1829;SDS011;914;48.118;11.600;2022-08-01T05:09:22;2.83;;;1.90;;
1829;SDS011;914;48.118;11.600;2022-08-01T05:11:48;2.40;;;2.20;;
1829;SDS011;914;48.118;11.600;2022-08-01T05:14:13;1.80;;;1.70;;
1829;SDS011;914;48.118;11.600;2022-08-01T05:16:39;2.60;;;2.13;;
1829;SDS011;914;48.118;11.600;2022-08-01T05:19:06;3.22;;;2.10;;
1829;SDS011;914;48.118;11.600;2022-08-01T05:21:33;2.00;;;1.80;;
1829;SDS011;914;48.118;11.600;2022-08-01T05:23:59;2.08;;;1.58;;
1829;SDS011;914;48.118;11.600;2022-08-01T05:26:25;4.35;;;2.10;;
1829;SDS011;914;48.118;11.600;2022-08-01T05:28:50;2.63;;;2.10;;
1829;SDS011;914;48.118;11.600;2022-08-01T05:31:16;3.15;;;1.77;;
1829;SDS011;914;48.118;11.600;2022-08-01T05:33:42;3.47;;;2.28;;
1829;SDS011;914;48.118;11.600;2022-08-01T05:36:07;1.83;;;1.70;;
1829;SDS011;914;48.118;11.600;2022-08-01T05:38:33;3.67;;;3.35;;
1829;SDS011;914;48.118;11.600;2022-08-01T05:40:59;2.03;;;1.90;;
1829;SDS011;914;48.118;11.600;2022-08-01T05:43:24;4.03;;;2.03;;
1829;SDS011;914;48.118;11.600;2022-08-01T05:45:50;3.13;;;2.05;;
1829;SDS011;914;48.118;11.600;2022-08-01T05:48:15;2.45;;;2.22;;
1829;SDS011;914;48.118;11.600;2022-08-01T05:50:41;2.00;;;1.83;;
1829;SDS011;914;48.118;11.600;2022-08-01T05:53:07;4.10;;;2.10;;
1829;SDS011;914;48.118;11.600;2022-08-01T05:55:34;3.50;;;1.80;;
1829;SDS011;914;48.118;11.600;2022-08-01T05:58:01;2.95;;;2.13;;
1829;SDS011;914;48.118;11.600;2022-08-01T06:00:27;5.13;;;2.25;;
1829;SDS011;914;48.118;11.600;2022-08-01T06:02:52;2.22;;;2.03;;
1829;SDS011;914;48.118;11.600;2022-08-01T06:05:18;3.88;;;2.13;;
1829;SDS011;914;48.118;11.600;2022-08-01T06:07:44;3.55;;;2.30;;
1829;SDS011;914;48.118;11.600;2022-08-01T06:10:10;5.00;;;2.20;;
1829;SDS011;914;48.118;11.600;2022-08-01T06:12:35;3.25;;;2.03;;
1829;SDS011;914;48.118;11.600;2022-08-01T06:15:05;7.65;;;2.25;;
1829;SDS011;914;48.118;11.600;2022-08-01T06:17:31;3.58;;;2.50;;
1829;SDS011;914;48.118;11.600;2022-08-01T06:19:57;1.90;;;1.77;;
1829;SDS011;914;48.118;11.600;2022-08-01T06:22:22;2.00;;;1.90;;
1829;SDS011;914;48.118;11.600;2022-08-01T06:24:48;6.95;;;2.10;;
1829;SDS011;914;48.118;11.600;2022-08-01T06:27:14;6.35;;;1.80;;
1829;SDS011;914;48.118;11.600;2022-08-01T06:29:39;3.10;;;2.05;;
1829;SDS011;914;48.118;11.600;2022-08-01T06:32:05;2.33;;;2.13;;
1829;SDS011;914;48.118;11.600;2022-08-01T06:34:31;3.05;;;1.85;;
1829;SDS011;914;48.118;11.600;2022-08-01T06:36:57;2.88;;;2.05;;
1829;SDS011;914;48.118;11.600;2022-08-01T06:39:23;2.33;;;2.13;;
1829;SDS011;914;48.118;11.600;2022-08-01T06:41:48;3.92;;;2.00;;
1829;SDS011;914;48.118;11.600;2022-08-01T06:44:14;2.53;;;2.30;;
1829;SDS011;914;48.118;11.600;2022-08-01T06:46:40;4.20;;;2.10;;
1829;SDS011;914;48.118;11.600;2022-08-01T06:49:05;2.35;;;2.20;;
1829;SDS011;914;48.118;11.600;2022-08-01T06:51:31;2.33;;;1.90;;
1829;SDS011;914;48.118;11.600;2022-08-01T06:53:56;2.85;;;2.22;;
1829;SDS011;914;48.118;11.600;2022-08-01T06:56:22;4.05;;;2.13;;
1829;SDS011;914;48.118;11.600;2022-08-01T06:58:51;3.35;;;2.20;;
1829;SDS011;914;48.118;11.600;2022-08-01T07:01:17;2.38;;;2.10;;
1829;SDS011;914;48.118;11.600;2022-08-01T07:03:42;4.47;;;2.10;;
1829;SDS011;914;48.118;11.600;2022-08-01T07:06:08;4.47;;;2.33;;
1829;SDS011;914;48.118;11.600;2022-08-01T07:08:34;2.38;;;2.17;;
1829;SDS011;914;48.118;11.600;2022-08-01T07:11:00;4.95;;;2.35;;
1829;SDS011;914;48.118;11.600;2022-08-01T07:13:26;3.75;;;2.30;;
1829;SDS011;914;48.118;11.600;2022-08-01T07:15:52;3.40;;;2.20;;
1829;SDS011;914;48.118;11.600;2022-08-01T07:18:18;2.55;;;2.20;;
1829;SDS011;914;48.118;11.600;2022-08-01T07:20:44;3.63;;;2.10;;
1829;SDS011;914;48.118;11.600;2022-08-01T07:23:13;3.08;;;2.10;;
1829;SDS011;914;48.118;11.600;2022-08-01T07:25:38;2.97;;;2.35;;
1829;SDS011;914;48.118;11.600;2022-08-01T07:28:04;1.98;;;1.88;;
1829;SDS011;914;48.118;11.600;2022-08-01T07:30:30;2.60;;;2.40;;
1829;SDS011;914;48.118;11.600;2022-08-01T07:32:56;3.40;;;2.13;;
1829;SDS011;914;48.118;11.600;2022-08-01T07:35:22;3.45;;;2.60;;
1829;SDS011;914;48.118;11.600;2022-08-01T07:37:48;2.60;;;2.40;;
1829;SDS011;914;48.118;11.600;2022-08-01T07:40:13;3.00;;;2.20;;
1829;SDS011;914;48.118;11.600;2022-08-01T07:42:39;6.72;;;2.50;;
1829;SDS011;914;48.118;11.600;2022-08-01T07:45:09;3.53;;;2.25;;
1829;SDS011;914;48.118;11.600;2022-08-01T07:47:35;4.63;;;2.38;;
1829;SDS011;914;48.118;11.600;2022-08-01T07:50:01;2.40;;;2.25;;
1829;SDS011;914;48.118;11.600;2022-08-01T07:52:28;3.63;;;2.75;;
1829;SDS011;914;48.118;11.600;2022-08-01T07:54:55;6.70;;;2.60;;
1829;SDS011;914;48.118;11.600;2022-08-01T07:57:21;3.80;;;2.53;;
1829;SDS011;914;48.118;11.600;2022-08-01T07:59:48;3.28;;;2.30;;
1829;SDS011;914;48.118;11.600;2022-08-01T08:02:14;3.92;;;2.33;;
1829;SDS011;914;48.118;11.600;2022-08-01T08:04:40;4.60;;;2.72;;
1829;SDS011;914;48.118;11.600;2022-08-01T08:07:06;2.47;;;2.28;;
1829;SDS011;914;48.118;11.600;2022-08-01T08:09:32;5.00;;;2.28;;
1829;SDS011;914;48.118;11.600;2022-08-01T08:11:58;5.95;;;2.38;;
1829;SDS011;914;48.118;11.600;2022-08-01T08:14:23;2.50;;;2.30;;
1829;SDS011;914;48.118;11.600;2022-08-01T08:16:50;2.65;;;2.20;;
1829;SDS011;914;48.118;11.600;2022-08-01T08:19:16;7.32;;;2.83;;
1829;SDS011;914;48.118;11.600;2022-08-01T08:21:42;2.50;;;2.30;;
1829;SDS011;914;48.118;11.600;2022-08-01T08:24:08;5.03;;;2.47;;
1829;SDS011;914;48.118;11.600;2022-08-01T08:26:55;3.92;;;2.45;;
1829;SDS011;914;48.118;11.600;2022-08-01T08:29:22;2.67;;;2.45;;
1829;SDS011;914;48.118;11.600;2022-08-01T08:31:49;4.65;;;2.38;;
1829;SDS011;914;48.118;11.600;2022-08-01T08:34:16;5.15;;;2.40;;
1829;SDS011;914;48.118;11.600;2022-08-01T08:36:41;3.08;;;2.40;;
1829;SDS011;914;48.118;11.600;2022-08-01T08:39:07;2.58;;;2.30;;
1829;SDS011;914;48.118;11.600;2022-08-01T08:41:33;2.70;;;2.20;;
1829;SDS011;914;48.118;11.600;2022-08-01T08:44:06;2.78;;;2.58;;
1829;SDS011;914;48.118;11.600;2022-08-01T08:46:32;2.83;;;2.58;;
1829;SDS011;914;48.118;11.600;2022-08-01T08:48:59;3.60;;;2.38;;
1829;SDS011;914;48.118;11.600;2022-08-01T08:51:26;2.47;;;2.10;;
1829;SDS011;914;48.118;11.600;2022-08-01T08:53:55;2.40;;;2.20;;
1829;SDS011;914;48.118;11.600;2022-08-01T08:56:23;3.30;;;2.50;;
1829;SDS011;914;48.118;11.600;2022-08-01T08:58:49;3.97;;;2.20;;
1829;SDS011;914;48.118;11.600;2022-08-01T09:01:16;4.13;;;2.30;;
1829;SDS011;914;48.118;11.600;2022-08-01T09:03:43;3.53;;;2.30;;
1829;SDS011;914;48.118;11.600;2022-08-01T09:06:09;3.25;;;2.28;;
1829;SDS011;914;48.118;11.600;2022-08-01T09:08:36;2.40;;;1.90;;
1829;SDS011;914;48.118;11.600;2022-08-01T09:11:02;3.30;;;2.00;;
1829;SDS011;914;48.118;11.600;2022-08-01T09:13:29;2.20;;;1.85;;
1829;SDS011;914;48.118;11.600;2022-08-01T09:15:55;3.25;;;2.30;;
1829;SDS011;914;48.118;11.600;2022-08-01T09:23:36;2.55;;;2.10;;
1829;SDS011;914;48.118;11.600;2022-08-01T09:26:09;4.85;;;2.10;;
1829;SDS011;914;48.118;11.600;2022-08-01T09:28:36;5.75;;;2.10;;
1829;SDS011;914;48.118;11.600;2022-08-01T09:31:06;2.58;;;1.98;;
1829;SDS011;914;48.118;11.600;2022-08-01T09:36:21;1.92;;;1.83;;
1829;SDS011;914;48.118;11.600;2022-08-01T09:38:49;4.05;;;3.65;;
1829;SDS011;914;48.118;11.600;2022-08-01T09:41:16;6.32;;;2.70;;
1829;SDS011;914;48.118;11.600;2022-08-01T09:43:53;2.88;;;2.05;;
1829;SDS011;914;48.118;11.600;2022-08-01T09:46:19;2.22;;;2.05;;
1829;SDS011;914;48.118;11.600;2022-08-01T09:51:31;3.65;;;1.67;;
1829;SDS011;914;48.118;11.600;2022-08-01T09:54:01;1.77;;;1.60;;
1829;SDS011;914;48.118;11.600;2022-08-01T09:56:38;3.25;;;1.75;;
1829;SDS011;914;48.118;11.600;2022-08-01T09:59:08;4.03;;;1.70;;
1829;SDS011;914;48.118;11.600;2022-08-01T10:01:47;2.92;;;1.80;;
1829;SDS011;914;48.118;11.600;2022-08-01T10:04:15;2.33;;;1.88;;
1829;SDS011;914;48.118;11.600;2022-08-01T10:06:46;1.92;;;1.70;;
1829;SDS011;914;48.118;11.600;2022-08-01T10:09:30;1.75;;;1.65;;
1829;SDS011;914;48.118;11.600;2022-08-01T10:11:57;2.55;;;1.75;;
1829;SDS011;914;48.118;11.600;2022-08-01T10:14:25;1.70;;;1.58;;
1829;SDS011;914;48.118;11.600;2022-08-01T10:16:52;1.73;;;1.63;;
1829;SDS011;914;48.118;11.600;2022-08-01T10:19:18;2.03;;;1.92;;
1829;SDS011;914;48.118;11.600;2022-08-01T10:21:47;2.10;;;1.85;;
1829;SDS011;914;48.118;11.600;2022-08-01T10:24:15;1.73;;;1.60;;
1829;SDS011;914;48.118;11.600;2022-08-01T10:26:42;5.60;;;1.63;;
1829;SDS011;914;48.118;11.600;2022-08-01T10:29:09;2.75;;;1.67;;
1829;SDS011;914;48.118;11.600;2022-08-01T10:31:36;1.63;;;1.50;;
1829;SDS011;914;48.118;11.600;2022-08-01T10:34:02;2.30;;;1.90;;
1829;SDS011;914;48.118;11.600;2022-08-01T10:36:29;1.70;;;1.35;;
1829;SDS011;914;48.118;11.600;2022-08-01T10:38:56;2.30;;;1.75;;
1829;SDS011;914;48.118;11.600;2022-08-01T10:41:24;2.83;;;1.67;;
1829;SDS011;914;48.118;11.600;2022-08-01T10:43:51;2.10;;;1.70;;
1829;SDS011;914;48.118;11.600;2022-08-01T10:46:18;2.97;;;1.60;;
1829;SDS011;914;48.118;11.600;2022-08-01T10:48:47;2.10;;;2.00;;
1829;SDS011;914;48.118;11.600;2022-08-01T10:51:15;2.05;;;1.48;;
1829;SDS011;914;48.118;11.600;2022-08-01T10:53:45;1.70;;;1.33;;
1829;SDS011;914;48.118;11.600;2022-08-01T10:56:18;3.03;;;1.83;;
1829;SDS011;914;48.118;11.600;2022-08-01T10:58:44;2.75;;;1.75;;
1829;SDS011;914;48.118;11.600;2022-08-01T11:03:59;1.88;;;1.52;;
1829;SDS011;914;48.118;11.600;2022-08-01T11:09:15;3.72;;;1.80;;
1829;SDS011;914;48.118;11.600;2022-08-01T11:12:11;3.72;;;1.60;;
1829;SDS011;914;48.118;11.600;2022-08-01T11:15:15;1.70;;;1.60;;
1829;SDS011;914;48.118;11.600;2022-08-01T11:17:45;3.47;;;1.55;;
1829;SDS011;914;48.118;11.600;2022-08-01T11:20:15;1.80;;;1.60;;
1829;SDS011;914;48.118;11.600;2022-08-01T11:30:39;1.73;;;1.52;;
1829;SDS011;914;48.118;11.600;2022-08-01T11:33:08;2.50;;;1.63;;
1829;SDS011;914;48.118;11.600;2022-08-01T11:35:35;2.28;;;1.60;;
1829;SDS011;914;48.118;11.600;2022-08-01T11:41:12;1.52;;;1.42;;
1829;SDS011;914;48.118;11.600;2022-08-01T11:49:28;1.52;;;1.42;;
1829;SDS011;914;48.118;11.600;2022-08-01T11:54:34;2.42;;;1.45;;
1829;SDS011;914;48.118;11.600;2022-08-01T11:57:06;2.25;;;1.80;;
1829;SDS011;914;48.118;11.600;2022-08-01T11:59:38;3.28;;;1.40;;
1829;SDS011;914;48.118;11.600;2022-08-01T12:02:14;4.45;;;1.33;;
1829;SDS011;914;48.118;11.600;2022-08-01T12:04:44;4.70;;;1.60;;
1829;SDS011;914;48.118;11.600;2022-08-01T12:07:12;2.03;;;1.55;;
1829;SDS011;914;48.118;11.600;2022-08-01T12:09:42;1.58;;;1.25;;
1829;SDS011;914;48.118;11.600;2022-08-01T12:12:08;1.75;;;1.30;;
1829;SDS011;914;48.118;11.600;2022-08-01T12:14:34;1.40;;;1.30;;
1829;SDS011;914;48.118;11.600;2022-08-01T12:17:00;1.60;;;1.50;;
1829;SDS011;914;48.118;11.600;2022-08-01T12:19:26;1.60;;;1.20;;
1829;SDS011;914;48.118;11.600;2022-08-01T12:24:53;1.27;;;1.17;;
1829;SDS011;914;48.118;11.600;2022-08-01T12:27:28;1.67;;;1.17;;
1829;SDS011;914;48.118;11.600;2022-08-01T12:29:56;1.33;;;1.13;;
1829;SDS011;914;48.118;11.600;2022-08-01T12:34:52;1.30;;;1.20;;
1829;SDS011;914;48.118;11.600;2022-08-01T12:37:19;1.13;;;1.13;;
1829;SDS011;914;48.118;11.600;2022-08-01T12:39:45;1.15;;;1.10;;
1829;SDS011;914;48.118;11.600;2022-08-01T12:42:15;2.28;;;1.10;;
1829;SDS011;914;48.118;11.600;2022-08-01T12:44:41;1.95;;;1.38;;
1829;SDS011;914;48.118;11.600;2022-08-01T12:47:10;1.10;;;1.10;;
1829;SDS011;914;48.118;11.600;2022-08-01T12:49:36;2.55;;;1.35;;
1829;SDS011;914;48.118;11.600;2022-08-01T12:52:04;1.40;;;1.30;;
1829;SDS011;914;48.118;11.600;2022-08-01T12:54:30;1.70;;;1.38;;
1829;SDS011;914;48.118;11.600;2022-08-01T12:57:22;2.50;;;1.10;;
1829;SDS011;914;48.118;11.600;2022-08-01T12:59:48;4.68;;;1.25;;
1829;SDS011;914;48.118;11.600;2022-08-01T13:02:18;1.35;;;1.20;;
1829;SDS011;914;48.118;11.600;2022-08-01T13:04:48;1.83;;;1.08;;
1829;SDS011;914;48.118;11.600;2022-08-01T13:07:19;1.38;;;1.27;;
1829;SDS011;914;48.118;11.600;2022-08-01T13:09:51;2.13;;;1.50;;
1829;SDS011;914;48.118;11.600;2022-08-01T13:12:17;2.10;;;1.10;;
1829;SDS011;914;48.118;11.600;2022-08-01T13:14:42;2.45;;;1.17;;
1829;SDS011;914;48.118;11.600;2022-08-01T13:17:08;1.88;;;1.50;;
1829;SDS011;914;48.118;11.600;2022-08-01T13:19:43;1.35;;;1.20;;
1829;SDS011;914;48.118;11.600;2022-08-01T13:22:09;1.65;;;1.30;;
1829;SDS011;914;48.118;11.600;2022-08-01T13:24:35;2.17;;;1.20;;
1829;SDS011;914;48.118;11.600;2022-08-01T13:27:02;1.30;;;1.20;;
1829;SDS011;914;48.118;11.600;2022-08-01T13:29:33;1.67;;;1.10;;
1829;SDS011;914;48.118;11.600;2022-08-01T13:32:16;1.40;;;1.30;;
1829;SDS011;914;48.118;11.600;2022-08-01T13:34:45;2.03;;;1.20;;
1829;SDS011;914;48.118;11.600;2022-08-01T13:37:11;2.47;;;1.40;;
1829;SDS011;914;48.118;11.600;2022-08-01T13:39:37;1.10;;;1.10;;
1829;SDS011;914;48.118;11.600;2022-08-01T13:42:05;2.15;;;1.05;;
1829;SDS011;914;48.118;11.600;2022-08-01T13:44:31;1.20;;;1.20;;
1829;SDS011;914;48.118;11.600;2022-08-01T13:46:57;5.75;;;1.35;;
1829;SDS011;914;48.118;11.600;2022-08-01T13:49:23;1.92;;;1.23;;
1829;SDS011;914;48.118;11.600;2022-08-01T13:51:48;2.45;;;1.10;;
1829;SDS011;914;48.118;11.600;2022-08-01T13:54:15;2.20;;;1.30;;
1829;SDS011;914;48.118;11.600;2022-08-01T13:56:41;1.25;;;1.15;;
1829;SDS011;914;48.118;11.600;2022-08-01T13:59:07;1.42;;;1.17;;
1829;SDS011;914;48.118;11.600;2022-08-01T14:01:33;1.92;;;1.27;;
1829;SDS011;914;48.118;11.600;2022-08-01T14:03:59;1.30;;;1.20;;
1829;SDS011;914;48.118;11.600;2022-08-01T14:06:25;1.25;;;1.00;;
1829;SDS011;914;48.118;11.600;2022-08-01T14:08:51;1.17;;;1.00;;
1829;SDS011;914;48.118;11.600;2022-08-01T14:11:16;1.02;;;1.00;;
1829;SDS011;914;48.118;11.600;2022-08-01T14:13:42;1.80;;;1.10;;
1829;SDS011;914;48.118;11.600;2022-08-01T14:16:08;1.00;;;1.00;;
1829;SDS011;914;48.118;11.600;2022-08-01T14:18:34;1.20;;;1.10;;
1829;SDS011;914;48.118;11.600;2022-08-01T14:21:00;1.02;;;1.02;;
1829;SDS011;914;48.118;11.600;2022-08-01T14:23:26;1.40;;;1.30;;
1829;SDS011;914;48.118;11.600;2022-08-01T14:25:52;3.30;;;1.30;;
1829;SDS011;914;48.118;11.600;2022-08-01T14:28:18;1.30;;;1.20;;
1829;SDS011;914;48.118;11.600;2022-08-01T14:30:44;1.20;;;1.20;;
1829;SDS011;914;48.118;11.600;2022-08-01T14:33:10;1.23;;;1.15;;
1829;SDS011;914;48.118;11.600;2022-08-01T14:35:36;1.13;;;1.13;;
1829;SDS011;914;48.118;11.600;2022-08-01T14:38:02;1.30;;;1.20;;
1829;SDS011;914;48.118;11.600;2022-08-01T14:40:28;2.95;;;1.20;;
1829;SDS011;914;48.118;11.600;2022-08-01T14:42:54;2.15;;;1.33;;
1829;SDS011;914;48.118;11.600;2022-08-01T14:45:21;1.38;;;1.27;;
1829;SDS011;914;48.118;11.600;2022-08-01T14:47:46;1.65;;;1.40;;
1829;SDS011;914;48.118;11.600;2022-08-01T14:50:13;1.70;;;1.60;;
1829;SDS011;914;48.118;11.600;2022-08-01T14:52:40;1.48;;;1.38;;
1829;SDS011;914;48.118;11.600;2022-08-01T14:55:08;2.35;;;1.58;;
1829;SDS011;914;48.118;11.600;2022-08-01T14:57:34;3.00;;;1.90;;
1829;SDS011;914;48.118;11.600;2022-08-01T15:00:01;1.70;;;1.60;;
1829;SDS011;914;48.118;11.600;2022-08-01T15:02:29;2.17;;;1.42;;
1829;SDS011;914;48.118;11.600;2022-08-01T15:04:55;2.92;;;1.60;;
1829;SDS011;914;48.118;11.600;2022-08-01T15:07:21;3.53;;;1.80;;
1829;SDS011;914;48.118;11.600;2022-08-01T15:09:46;1.92;;;1.45;;
1829;SDS011;914;48.118;11.600;2022-08-01T15:12:12;2.13;;;1.80;;
1829;SDS011;914;48.118;11.600;2022-08-01T15:14:38;2.95;;;1.63;;
1829;SDS011;914;48.118;11.600;2022-08-01T15:17:14;7.00;;;1.85;;
1829;SDS011;914;48.118;11.600;2022-08-01T15:19:44;2.78;;;1.75;;
1829;SDS011;914;48.118;11.600;2022-08-01T15:22:11;2.53;;;1.95;;
1829;SDS011;914;48.118;11.600;2022-08-01T15:24:37;5.00;;;1.80;;
1829;SDS011;914;48.118;11.600;2022-08-01T15:27:03;2.80;;;1.30;;
1829;SDS011;914;48.118;11.600;2022-08-01T15:29:30;2.83;;;1.40;;
1829;SDS011;914;48.118;11.600;2022-08-01T15:31:56;2.35;;;1.80;;
1829;SDS011;914;48.118;11.600;2022-08-01T15:34:22;1.65;;;1.55;;
1829;SDS011;914;48.118;11.600;2022-08-01T15:36:48;3.97;;;1.50;;
1829;SDS011;914;48.118;11.600;2022-08-01T15:39:14;4.85;;;1.60;;
1829;SDS011;914;48.118;11.600;2022-08-01T15:41:40;6.35;;;1.65;;
1829;SDS011;914;48.118;11.600;2022-08-01T15:44:06;4.30;;;1.52;;
1829;SDS011;914;48.118;11.600;2022-08-01T15:46:31;1.67;;;1.50;;
1829;SDS011;914;48.118;11.600;2022-08-01T15:48:57;7.75;;;1.95;;
1829;SDS011;914;48.118;11.600;2022-08-01T15:51:26;2.28;;;1.70;;
1829;SDS011;914;48.118;11.600;2022-08-01T15:53:52;5.10;;;1.85;;
1829;SDS011;914;48.118;11.600;2022-08-01T15:56:17;3.05;;;1.90;;
1829;SDS011;914;48.118;11.600;2022-08-01T15:58:43;2.58;;;1.70;;
1829;SDS011;914;48.118;11.600;2022-08-01T16:01:08;1.95;;;1.75;;
1829;SDS011;914;48.118;11.600;2022-08-01T16:03:34;3.40;;;1.90;;
1829;SDS011;914;48.118;11.600;2022-08-01T16:05:59;2.38;;;2.10;;
1829;SDS011;914;48.118;11.600;2022-08-01T16:08:25;2.15;;;1.85;;
1829;SDS011;914;48.118;11.600;2022-08-01T16:10:51;2.67;;;1.73;;
1829;SDS011;914;48.118;11.600;2022-08-01T16:13:16;4.32;;;1.90;;